Time;durP1;ratioP1;P1;durP2;ratioP2;P2;SDS_P1;SDS_P2;PMS_P1;PMS_P2;Temp;Humidity;BMP_temperature;BMP_pressure;BME280_temperature;BME280_humidity;BME280_pressure;Samples;Min_cycle;Max_cycle;Signal;HPM_P1;HPM_P2
2021/12/17 00:02:15;;;;;;;3.20;3.00;;;18.60;61.60;;;;;;5048046;28;20466;-83
2021/12/17 00:04:39;;;;;;;3.57;3.30;;;18.60;61.60;;;;;;5044644;28;20470;-81
2021/12/17 00:07:10;;;;;;;3.93;3.57;;;18.60;61.60;;;;;;5043553;28;20459;-81
2021/12/17 00:09:38;;;;;;;4.43;3.17;;;18.50;61.50;;;;;;5050458;28;20508;-82
2021/12/17 00:12:09;;;;;;;4.00;3.67;;;18.50;61.60;;;;;;5049201;28;20459;-82
2021/12/17 00:14:39;;;;;;;3.43;3.23;;;18.50;61.60;;;;;;5048420;28;20450;-81
2021/12/17 00:17:10;;;;;;;3.97;3.37;;;18.50;61.60;;;;;;5051195;28;20435;-82
2021/12/17 00:19:57;;;;;;;3.53;3.23;;;18.50;61.50;;;;;;5048246;28;20427;-82
2021/12/17 00:50:34;;;;;;;3.50;3.30;;;18.50;61.70;;;;;;5047808;28;20438;-82
2021/12/17 00:53:02;;;;;;;3.80;3.50;;;18.50;61.70;;;;;;5045670;28;20502;-82
2021/12/17 00:55:30;;;;;;;3.43;3.07;;;18.50;61.80;;;;;;5046305;28;20467;-82
2021/12/17 00:57:58;;;;;;;3.13;2.83;;;18.50;61.70;;;;;;5046751;28;20462;-81
2021/12/17 01:00:26;;;;;;;3.60;3.30;;;18.50;61.80;;;;;;5044304;28;20463;-82
2021/12/17 01:02:55;;;;;;;3.30;3.10;;;18.50;61.70;;;;;;5049112;28;20435;-81
2021/12/17 01:05:26;;;;;;;3.10;2.80;;;18.50;61.70;;;;;;5038983;28;20479;-81
2021/12/17 01:07:54;;;;;;;4.80;3.60;;;18.50;61.70;;;;;;5056550;28;20461;-80
2021/12/17 01:10:26;;;;;;;3.20;2.90;;;18.50;61.80;;;;;;5056549;28;20500;-81
2021/12/17 01:12:54;;;;;;;3.20;3.00;;;18.50;61.60;;;;;;5036492;28;20460;-81
2021/12/17 01:15:22;;;;;;;3.40;3.00;;;18.50;62.40;;;;;;5048721;28;20549;-82
2021/12/17 01:17:53;;;;;;;3.40;3.17;;;18.60;61.90;;;;;;5054110;28;20489;-81
2021/12/17 01:20:29;;;;;;;3.20;3.00;;;18.60;61.80;;;;;;5055661;28;20516;-82
2021/12/17 01:23:16;;;;;;;4.00;3.60;;;18.60;61.80;;;;;;5053842;28;20480;-82
2021/12/17 01:35:20;;;;;;;3.73;3.43;;;18.60;61.70;;;;;;5055803;28;20513;-81
2021/12/17 01:37:30;;;;;;;4.27;3.20;;;18.50;61.70;;;;;;5055886;28;20533;-82
2021/12/17 01:42:35;;;;;;;3.00;2.70;;;18.60;62.00;;;;;;5055957;28;20442;-82
2021/12/17 01:45:03;;;;;;;3.20;3.00;;;18.50;61.80;;;;;;5056454;28;20478;-82
2021/12/17 01:47:31;;;;;;;3.53;3.23;;;18.50;61.80;;;;;;5056767;28;20465;-82
2021/12/17 01:55:51;;;;;;;4.00;3.47;;;18.50;61.90;;;;;;5011689;28;20470;-82
2021/12/17 02:01:06;;;;;;;4.87;3.20;;;18.50;61.90;;;;;;5037532;28;20447;-81
2021/12/17 02:03:34;;;;;;;3.20;2.97;;;18.50;61.90;;;;;;5036334;28;20470;-81
2021/12/17 02:06:03;;;;;;;3.53;3.30;;;18.50;61.90;;;;;;5051898;28;20474;-80
2021/12/17 02:08:33;;;;;;;4.73;3.37;;;18.50;61.90;;;;;;5052412;28;20474;-81
2021/12/17 02:11:41;;;;;;;3.83;3.43;;;18.60;61.90;;;;;;5048003;28;20526;-80
2021/12/17 02:19:47;;;;;;;2.87;2.67;;;18.50;61.90;;;;;;5055072;28;20529;-81
2021/12/17 02:33:15;;;;;;;3.50;3.20;;;18.50;62.00;;;;;;5043356;28;20454;-81
2021/12/17 02:35:45;;;;;;;2.83;2.70;;;18.50;62.10;;;;;;5062288;28;20431;-82
2021/12/17 02:38:16;;;;;;;3.13;2.93;;;18.50;62.00;;;;;;5058936;28;20473;-82
2021/12/17 02:46:15;;;;;;;3.93;3.03;;;18.50;61.90;;;;;;5055065;28;20565;-82
2021/12/17 02:48:43;;;;;;;2.90;2.80;;;18.50;61.90;;;;;;5059047;28;20506;-82
2021/12/17 02:51:11;;;;;;;2.43;2.30;;;18.50;61.90;;;;;;5059545;28;20450;-81
2021/12/17 02:53:40;;;;;;;2.97;2.77;;;18.50;61.90;;;;;;5051209;28;20497;-81
2021/12/17 02:56:09;;;;;;;3.10;2.90;;;18.50;61.90;;;;;;5051042;28;20529;-81
2021/12/17 02:58:38;;;;;;;3.00;2.80;;;18.50;61.90;;;;;;5055182;28;20873;-81
2021/12/17 03:01:07;;;;;;;2.93;2.73;;;18.50;61.90;;;;;;5051787;28;20501;-82
2021/12/17 03:03:35;;;;;;;3.93;2.97;;;18.50;61.90;;;;;;5051110;28;20531;-82
2021/12/17 03:06:02;;;;;;;4.27;3.30;;;18.50;61.90;;;;;;5051583;28;20478;-82
2021/12/17 03:08:30;;;;;;;5.27;2.80;;;18.50;62.00;;;;;;5058747;28;20427;-81
2021/12/17 03:10:59;;;;;;;2.63;2.50;;;18.50;61.90;;;;;;5058235;28;20506;-82
2021/12/17 03:13:29;;;;;;;2.60;2.40;;;18.50;61.90;;;;;;5059376;28;20458;-82
2021/12/17 03:16:01;;;;;;;3.23;2.93;;;18.50;62.00;;;;;;5054849;28;20448;-83
2021/12/17 03:24:07;;;;;;;4.00;2.70;;;18.50;62.00;;;;;;5048980;28;20508;-81
2021/12/17 03:26:36;;;;;;;2.70;2.50;;;18.50;62.70;;;;;;5049944;28;20534;-81
2021/12/17 03:29:06;;;;;;;2.93;2.73;;;18.50;62.00;;;;;;5039381;28;20452;-82
2021/12/17 03:31:34;;;;;;;2.87;2.67;;;18.50;61.90;;;;;;5041913;28;20508;-82
2021/12/17 03:34:14;;;;;;;2.77;2.57;;;18.50;62.00;;;;;;5045143;28;20479;-82
2021/12/17 03:36:42;;;;;;;3.03;2.83;;;18.50;62.00;;;;;;5051110;28;20486;-81
2021/12/17 03:39:10;;;;;;;4.77;3.10;;;18.50;62.00;;;;;;5053643;28;20435;-82
2021/12/17 03:41:47;;;;;;;3.50;2.63;;;18.50;62.00;;;;;;5048779;28;20439;-82
2021/12/17 03:44:15;;;;;;;3.13;2.97;;;18.50;62.00;;;;;;5049126;28;20450;-82
2021/12/17 03:46:44;;;;;;;2.50;2.40;;;18.40;61.90;;;;;;5048632;28;20562;-82
2021/12/17 03:49:12;;;;;;;2.90;2.70;;;18.40;61.90;;;;;;5048605;28;20424;-80
2021/12/17 03:51:48;;;;;;;2.70;2.60;;;18.50;62.00;;;;;;5047916;28;20549;-80
2021/12/17 03:54:16;;;;;;;2.60;2.40;;;18.40;61.90;;;;;;5046882;28;20534;-81
2021/12/17 03:56:45;;;;;;;3.07;2.87;;;18.40;61.90;;;;;;5051239;28;20427;-81
2021/12/17 03:59:13;;;;;;;3.13;2.93;;;18.40;61.90;;;;;;5048579;28;20499;-81
2021/12/17 04:01:41;;;;;;;2.77;2.57;;;18.40;62.00;;;;;;5047338;28;20514;-81
2021/12/17 04:04:09;;;;;;;2.87;2.67;;;18.40;61.90;;;;;;5034320;28;20483;-80
2021/12/17 04:06:39;;;;;;;3.43;2.70;;;18.40;61.90;;;;;;5038421;28;20478;-81
2021/12/17 04:09:08;;;;;;;2.60;2.50;;;18.40;61.90;;;;;;5037854;28;20510;-81
2021/12/17 04:11:36;;;;;;;2.97;2.33;;;18.40;61.90;;;;;;5040684;28;20451;-81
2021/12/17 04:14:05;;;;;;;3.57;2.70;;;18.40;62.00;;;;;;5050824;28;20574;-81
2021/12/17 04:16:34;;;;;;;2.80;2.60;;;18.40;62.00;;;;;;5047520;28;20651;-81
2021/12/17 04:19:01;;;;;;;2.70;2.50;;;18.40;61.90;;;;;;5047933;28;20433;-81
2021/12/17 04:21:29;;;;;;;2.77;2.57;;;18.40;61.90;;;;;;5048857;28;20521;-80
2021/12/17 04:23:57;;;;;;;2.70;2.60;;;18.40;62.00;;;;;;5047939;28;20486;-80
2021/12/17 04:26:26;;;;;;;2.67;2.47;;;18.40;62.00;;;;;;5046998;28;20491;-80
2021/12/17 04:28:54;;;;;;;2.87;2.67;;;18.40;62.10;;;;;;5047404;28;20452;-81
2021/12/17 04:31:25;;;;;;;2.43;2.23;;;18.40;62.00;;;;;;5049777;28;20542;-82
2021/12/17 04:33:53;;;;;;;2.40;2.30;;;18.40;62.10;;;;;;5046821;28;20450;-82
2021/12/17 04:36:25;;;;;;;2.67;2.33;;;18.40;62.10;;;;;;5049362;28;20890;-81
2021/12/17 04:38:54;;;;;;;2.50;2.37;;;18.40;62.10;;;;;;5048115;28;20427;-81
2021/12/17 04:44:13;;;;;;;2.87;2.67;;;18.30;62.00;;;;;;5046974;28;20497;-81
2021/12/17 04:46:47;;;;;;;3.47;2.77;;;18.30;62.00;;;;;;5048222;28;20510;-82
2021/12/17 04:57:38;;;;;;;3.00;2.70;;;18.40;62.10;;;;;;5022630;28;20439;-81
2021/12/17 05:00:08;;;;;;;2.33;2.23;;;18.40;62.00;;;;;;5047608;28;20501;-81
2021/12/17 05:02:41;;;;;;;2.90;2.70;;;18.40;62.00;;;;;;5048573;28;20521;-81
2021/12/17 05:05:10;;;;;;;3.43;2.33;;;18.30;61.90;;;;;;5051351;28;20477;-81
2021/12/17 05:07:41;;;;;;;2.53;2.43;;;18.30;62.00;;;;;;5052223;28;20561;-81
2021/12/17 05:10:18;;;;;;;2.30;2.20;;;18.30;62.10;;;;;;5056008;28;20613;-80
2021/12/17 05:18:23;;;;;;;2.37;2.27;;;18.30;62.00;;;;;;5050097;28;20470;-81
2021/12/17 05:20:55;;;;;;;2.30;2.20;;;18.30;62.00;;;;;;5049145;28;20542;-81
2021/12/17 05:23:26;;;;;;;2.73;2.50;;;18.30;62.10;;;;;;5057610;28;20561;-80
2021/12/17 05:25:54;;;;;;;1.90;1.80;;;18.30;62.00;;;;;;5057845;28;20516;-81
2021/12/17 05:28:22;;;;;;;2.80;2.60;;;18.30;62.10;;;;;;5057685;28;20494;-80
2021/12/17 05:30:50;;;;;;;2.20;2.10;;;18.30;62.00;;;;;;5056906;28;20502;-80
2021/12/17 05:33:20;;;;;;;2.33;2.23;;;18.30;62.10;;;;;;5057694;28;20462;-80
2021/12/17 05:35:49;;;;;;;2.43;2.23;;;18.40;62.10;;;;;;5054292;28;20462;-81
2021/12/17 05:38:18;;;;;;;3.63;2.50;;;18.30;62.10;;;;;;5056827;28;20450;-80
2021/12/17 05:40:46;;;;;;;2.70;2.53;;;18.30;62.10;;;;;;5037729;28;20475;-81
2021/12/17 05:43:15;;;;;;;2.40;2.30;;;18.30;62.10;;;;;;5037718;28;20506;-81
2021/12/17 05:46:05;;;;;;;2.23;2.03;;;18.30;62.10;;;;;;5037182;28;20495;-80
2021/12/17 05:48:34;;;;;;;2.30;2.10;;;18.30;62.10;;;;;;5037477;28;20507;-81
2021/12/17 05:51:04;;;;;;;2.10;2.00;;;18.30;62.10;;;;;;5036545;28;20432;-81
2021/12/17 05:53:32;;;;;;;2.73;2.53;;;18.30;62.10;;;;;;5052552;28;20498;-81
2021/12/17 05:56:00;;;;;;;2.47;2.30;;;18.30;62.10;;;;;;5057198;28;20438;-81
2021/12/17 05:58:28;;;;;;;2.60;2.40;;;18.30;62.00;;;;;;5056877;28;20470;-81
2021/12/17 06:00:56;;;;;;;2.33;2.13;;;18.30;62.10;;;;;;5039150;28;20554;-81
2021/12/17 06:03:24;;;;;;;2.30;2.20;;;18.30;62.10;;;;;;5036999;28;20451;-81
2021/12/17 06:05:53;;;;;;;2.97;2.77;;;18.30;62.10;;;;;;5046201;28;20545;-82
2021/12/17 06:08:21;;;;;;;2.10;2.00;;;18.30;62.10;;;;;;5046481;28;20507;-82
2021/12/17 06:10:49;;;;;;;2.63;2.53;;;18.30;62.10;;;;;;5052644;28;20485;-82
2021/12/17 06:13:17;;;;;;;2.23;2.13;;;18.30;62.10;;;;;;5060046;28;20494;-80
2021/12/17 06:15:45;;;;;;;2.33;2.23;;;18.30;62.00;;;;;;5060636;28;20494;-81
2021/12/17 06:18:14;;;;;;;2.37;2.27;;;18.30;62.00;;;;;;5061055;28;20489;-81
2021/12/17 06:20:42;;;;;;;2.23;2.13;;;18.30;62.10;;;;;;5061210;28;20450;-81
2021/12/17 06:23:11;;;;;;;2.40;2.20;;;18.30;62.10;;;;;;5059405;28;20501;-80
2021/12/17 06:25:39;;;;;;;2.10;1.90;;;18.30;62.10;;;;;;5059803;28;20533;-82
2021/12/17 06:28:07;;;;;;;2.30;2.20;;;18.30;62.10;;;;;;5051274;28;20558;-81
2021/12/17 06:30:35;;;;;;;2.17;2.07;;;18.30;62.10;;;;;;5060701;28;20533;-81
2021/12/17 06:33:03;;;;;;;2.67;2.47;;;18.30;61.90;;;;;;5060967;28;20493;-81
2021/12/17 06:35:31;;;;;;;2.10;2.00;;;18.30;62.00;;;;;;5053912;28;20504;-81
2021/12/17 06:37:59;;;;;;;2.40;2.30;;;18.30;62.00;;;;;;5047044;28;20953;-81
2021/12/17 06:40:29;;;;;;;2.20;2.10;;;18.30;62.10;;;;;;5060481;28;20427;-82
2021/12/17 06:42:57;;;;;;;2.40;2.30;;;18.30;62.00;;;;;;5060626;28;20521;-82
2021/12/17 06:45:39;;;;;;;2.70;2.50;;;18.30;61.90;;;;;;5056968;28;20513;-81
2021/12/17 06:48:09;;;;;;;2.40;2.30;;;18.30;62.80;;;;;;5041093;28;20470;-82
2021/12/17 06:59:07;;;;;;;2.60;2.20;;;18.30;62.10;;;;;;5043618;28;20553;-82
2021/12/17 07:10:15;;;;;;;1.97;1.87;;;18.30;62.10;;;;;;5060644;28;20473;-82
2021/12/17 07:21:20;;;;;;;2.20;2.10;;;18.30;62.20;;;;;;5060490;28;20465;-82
2021/12/17 07:32:37;;;;;;;2.60;2.40;;;18.30;62.30;;;;;;5051132;28;20455;-82
2021/12/17 07:35:37;;;;;;;2.30;2.17;;;18.30;62.30;;;;;;5052184;28;20496;-81
2021/12/17 07:40:51;;;;;;;2.20;2.10;;;18.30;62.30;;;;;;5040879;28;20458;-82
2021/12/17 07:43:26;;;;;;;2.37;2.17;;;18.30;62.20;;;;;;5040206;28;20547;-82
2021/12/17 07:45:57;;;;;;;1.93;1.83;;;18.30;62.20;;;;;;5040417;28;20491;-82
2021/12/17 07:48:25;;;;;;;2.37;2.17;;;18.30;62.20;;;;;;5039707;28;20541;-82
2021/12/17 07:50:53;;;;;;;1.90;1.80;;;18.30;62.10;;;;;;5044350;28;20477;-82
2021/12/17 07:53:21;;;;;;;1.93;1.83;;;18.30;62.20;;;;;;5059376;28;20463;-81
2021/12/17 07:55:48;;;;;;;2.50;2.30;;;18.40;62.20;;;;;;5059740;28;20453;-80
2021/12/17 07:58:16;;;;;;;2.90;2.20;;;18.30;62.20;;;;;;5043688;28;20874;-82
2021/12/17 08:00:44;;;;;;;2.17;2.07;;;18.30;62.10;;;;;;5043236;28;20487;-81
2021/12/17 08:03:14;;;;;;;2.33;2.20;;;18.30;62.30;;;;;;5040353;28;20525;-81
2021/12/17 08:05:43;;;;;;;2.70;2.50;;;18.30;62.10;;;;;;5039476;28;20463;-82
2021/12/17 08:08:13;;;;;;;2.80;2.20;;;18.40;62.30;;;;;;5039803;28;20498;-82
2021/12/17 08:10:40;;;;;;;3.27;2.30;;;18.40;62.30;;;;;;5058482;28;20446;-81
2021/12/17 08:13:18;;;;;;;2.07;1.97;;;18.40;62.10;;;;;;5040011;28;20669;-82
2021/12/17 08:16:00;;;;;;;2.00;1.90;;;18.40;62.20;;;;;;5039449;28;20487;-81
2021/12/17 08:24:38;;;;;;;1.73;1.63;;;18.40;62.20;;;;;;5038749;28;20455;-82
2021/12/17 08:27:10;;;;;;;1.80;1.70;;;18.40;62.20;;;;;;5057334;28;20514;-82
2021/12/17 08:29:53;;;;;;;3.40;2.00;;;18.40;62.10;;;;;;5039650;28;20475;-82
2021/12/17 08:32:21;;;;;;;1.90;1.80;;;18.40;62.10;;;;;;5044968;28;20534;-82
2021/12/17 08:34:50;;;;;;;2.00;1.90;;;18.40;62.10;;;;;;5059353;28;20470;-83
2021/12/17 08:37:18;;;;;;;2.27;2.17;;;18.40;62.10;;;;;;5059214;28;20450;-82
2021/12/17 08:39:46;;;;;;;2.30;2.20;;;18.40;62.10;;;;;;5040853;28;20444;-82
2021/12/17 08:42:14;;;;;;;2.27;2.13;;;18.40;62.10;;;;;;5057626;28;20488;-82
2021/12/17 08:44:42;;;;;;;1.80;1.70;;;18.50;62.00;;;;;;5058932;28;20497;-82
2021/12/17 08:47:10;;;;;;;1.73;1.63;;;18.40;62.10;;;;;;5045620;28;20478;-82
2021/12/17 08:49:40;;;;;;;1.90;1.80;;;18.40;62.10;;;;;;5050468;28;20531;-82
2021/12/17 08:52:10;;;;;;;2.17;1.97;;;18.50;62.10;;;;;;5050337;28;20462;-82
2021/12/17 08:54:37;;;;;;;1.77;1.67;;;18.40;62.20;;;;;;5047647;28;20455;-82
2021/12/17 08:57:06;;;;;;;2.00;1.90;;;18.40;62.20;;;;;;5048286;28;20509;-83
2021/12/17 08:59:34;;;;;;;2.13;2.03;;;18.50;62.30;;;;;;5049363;28;20538;-80
2021/12/17 09:02:02;;;;;;;1.90;1.80;;;18.50;62.10;;;;;;5047952;28;20467;-82
2021/12/17 09:04:30;;;;;;;2.10;2.00;;;18.50;62.10;;;;;;5050040;28;20463;-82
2021/12/17 09:06:58;;;;;;;2.30;2.10;;;18.50;62.10;;;;;;5046139;28;20469;-81
2021/12/17 09:09:28;;;;;;;2.13;1.63;;;18.50;62.20;;;;;;5046057;28;20470;-82
2021/12/17 09:11:56;;;;;;;1.80;1.70;;;18.50;62.10;;;;;;5047709;28;20492;-83
2021/12/17 09:14:24;;;;;;;1.70;1.60;;;18.50;62.00;;;;;;5048648;28;20474;-83
2021/12/17 09:16:52;;;;;;;1.60;1.50;;;18.50;62.00;;;;;;5048167;28;20539;-82
2021/12/17 09:19:20;;;;;;;1.97;1.87;;;18.50;62.00;;;;;;5038502;28;20443;-82
2021/12/17 09:21:49;;;;;;;1.80;1.70;;;18.60;61.90;;;;;;5037957;28;20471;-82
2021/12/17 09:24:17;;;;;;;1.67;1.57;;;18.50;61.90;;;;;;5038510;28;20482;-82
2021/12/17 09:26:46;;;;;;;2.17;1.90;;;18.50;61.80;;;;;;5038513;28;20507;-81
2021/12/17 09:29:14;;;;;;;1.90;1.80;;;18.50;61.90;;;;;;5044768;28;20558;-82
2021/12/17 09:31:42;;;;;;;2.00;1.90;;;18.60;62.10;;;;;;5054858;28;20530;-82
2021/12/17 09:34:10;;;;;;;2.03;1.93;;;18.60;62.00;;;;;;5057841;28;20498;-82
2021/12/17 09:36:38;;;;;;;1.60;1.50;;;18.60;62.00;;;;;;5058467;28;21028;-82
2021/12/17 09:39:06;;;;;;;2.07;1.97;;;18.60;62.00;;;;;;5058503;28;20453;-82
2021/12/17 09:41:34;;;;;;;1.53;1.43;;;18.60;62.00;;;;;;5064088;28;20475;-80
2021/12/17 09:44:04;;;;;;;2.20;2.00;;;18.50;61.90;;;;;;5071907;28;20458;-82
2021/12/17 09:46:31;;;;;;;1.80;1.70;;;18.60;62.10;;;;;;5070838;28;20449;-81
2021/12/17 09:48:59;;;;;;;2.10;2.00;;;18.60;62.00;;;;;;5068190;28;20466;-81
2021/12/17 09:51:27;;;;;;;2.07;1.97;;;18.60;61.90;;;;;;5062793;28;20477;-81
2021/12/17 09:53:55;;;;;;;1.90;1.80;;;18.60;61.90;;;;;;5062248;28;20482;-82
2021/12/17 09:56:24;;;;;;;1.87;1.77;;;18.70;62.00;;;;;;5058547;28;20599;-82
2021/12/17 09:58:52;;;;;;;2.07;1.97;;;18.60;61.90;;;;;;5061052;28;20462;-81
2021/12/17 10:01:21;;;;;;;1.60;1.50;;;18.60;61.90;;;;;;5044786;28;20439;-81
2021/12/17 10:04:14;;;;;;;1.80;1.70;;;18.70;61.80;;;;;;5050633;28;20557;-82
2021/12/17 10:06:42;;;;;;;2.00;1.90;;;18.70;61.90;;;;;;5052801;28;20439;-82
2021/12/17 10:09:10;;;;;;;1.90;1.80;;;18.70;61.90;;;;;;5054034;28;20525;-82
2021/12/17 10:11:38;;;;;;;1.77;1.67;;;18.70;61.90;;;;;;5050433;28;20538;-82
2021/12/17 10:14:18;;;;;;;1.80;1.70;;;18.70;61.80;;;;;;5043679;28;20530;-83
2021/12/17 10:16:47;;;;;;;2.00;1.90;;;18.70;61.90;;;;;;5048962;28;20438;-81
2021/12/17 10:19:18;;;;;;;1.70;1.60;;;18.70;61.90;;;;;;5051290;28;20420;-82
2021/12/17 10:21:47;;;;;;;1.80;1.70;;;18.70;61.80;;;;;;5050694;28;20885;-82
2021/12/17 10:24:22;;;;;;;1.80;1.70;;;18.70;61.90;;;;;;5054809;28;20469;-82
2021/12/17 10:26:49;;;;;;;2.80;1.57;;;18.70;61.80;;;;;;5052393;28;20485;-82
2021/12/17 10:29:20;;;;;;;1.80;1.70;;;18.80;62.10;;;;;;5051177;28;20431;-82
2021/12/17 10:31:57;;;;;;;2.10;2.00;;;18.80;61.90;;;;;;5050102;28;20455;-81
2021/12/17 10:34:25;;;;;;;1.80;1.70;;;18.80;61.90;;;;;;5050643;28;20482;-82
2021/12/17 10:36:53;;;;;;;1.77;1.67;;;18.80;61.90;;;;;;5050129;28;20493;-82
2021/12/17 10:39:25;;;;;;;1.50;1.50;;;18.90;61.80;;;;;;5052322;28;20501;-82
2021/12/17 10:41:53;;;;;;;1.50;1.40;;;18.90;61.90;;;;;;5050804;28;20471;-82
2021/12/17 10:44:22;;;;;;;1.80;1.70;;;18.90;61.70;;;;;;5051932;28;20485;-83
2021/12/17 10:47:06;;;;;;;1.70;1.60;;;19.00;61.70;;;;;;5052631;28;20462;-83
2021/12/17 10:49:35;;;;;;;2.13;2.03;;;18.90;61.40;;;;;;5051023;28;20489;-83
2021/12/17 10:52:07;;;;;;;2.13;2.00;;;18.90;61.40;;;;;;5049383;28;20529;-80
2021/12/17 10:54:35;;;;;;;2.00;1.90;;;19.00;61.50;;;;;;5046706;28;20509;-80
2021/12/17 10:57:03;;;;;;;1.80;1.70;;;19.00;61.60;;;;;;5048984;28;20442;-82
2021/12/17 10:59:31;;;;;;;1.83;1.70;;;19.00;61.60;;;;;;5048734;28;20478;-82
2021/12/17 11:02:05;;;;;;;1.80;1.70;;;19.00;61.60;;;;;;5050526;28;20458;-81
2021/12/17 11:04:34;;;;;;;1.70;1.60;;;19.00;61.60;;;;;;5051259;28;20442;-82
2021/12/17 11:07:06;;;;;;;1.67;1.57;;;19.00;61.40;;;;;;5048621;28;20470;-82
2021/12/17 11:09:46;;;;;;;1.83;1.73;;;19.00;61.60;;;;;;5040771;28;20496;-82
2021/12/17 11:12:26;;;;;;;1.80;1.70;;;19.10;61.50;;;;;;5039583;28;20440;-82
2021/12/17 11:14:56;;;;;;;1.70;1.60;;;19.10;61.50;;;;;;5038825;28;20554;-80
2021/12/17 11:17:24;;;;;;;1.63;1.57;;;19.10;61.40;;;;;;5052369;28;20946;-79
2021/12/17 11:20:06;;;;;;;2.00;1.90;;;19.10;61.50;;;;;;5040183;28;20451;-80
2021/12/17 11:22:37;;;;;;;1.70;1.60;;;19.20;61.60;;;;;;5039939;28;20461;-82
2021/12/17 11:25:06;;;;;;;1.80;1.70;;;19.10;61.50;;;;;;5041017;28;20451;-82
2021/12/17 11:27:34;;;;;;;1.70;1.60;;;19.20;61.40;;;;;;5040784;28;20470;-81
2021/12/17 11:30:02;;;;;;;1.70;1.60;;;19.10;61.40;;;;;;5061023;28;20561;-83
2021/12/17 11:32:30;;;;;;;1.60;1.60;;;19.20;61.50;;;;;;5056581;28;20546;-83
2021/12/17 11:34:59;;;;;;;1.60;1.50;;;19.20;61.50;;;;;;5055185;28;20466;-82
2021/12/17 11:37:27;;;;;;;1.50;1.50;;;19.20;61.40;;;;;;5060533;28;20526;-82
2021/12/17 11:39:58;;;;;;;2.07;1.97;;;19.20;61.40;;;;;;5050561;28;20470;-82
2021/12/17 11:42:49;;;;;;;1.43;1.43;;;19.20;61.40;;;;;;5050068;28;20467;-82
2021/12/17 11:45:25;;;;;;;1.63;1.53;;;19.20;61.40;;;;;;5049066;28;20499;-82
2021/12/17 11:47:54;;;;;;;3.00;2.00;;;19.30;61.50;;;;;;5051154;28;20461;-83
2021/12/17 11:50:22;;;;;;;1.73;1.63;;;19.20;61.40;;;;;;5049329;28;20473;-83
2021/12/17 11:52:50;;;;;;;1.50;1.40;;;19.20;61.40;;;;;;5048443;28;20574;-83
2021/12/17 11:55:33;;;;;;;1.40;1.40;;;19.20;61.30;;;;;;5050731;28;20492;-82
2021/12/17 11:58:02;;;;;;;1.60;1.50;;;19.20;61.30;;;;;;5050378;28;20434;-82
2021/12/17 12:00:32;;;;;;;1.50;1.40;;;19.20;61.60;;;;;;5049289;28;20444;-83
2021/12/17 12:03:13;;;;;;;1.63;1.53;;;19.20;61.40;;;;;;5038874;28;20454;-83
2021/12/17 12:05:42;;;;;;;1.60;1.50;;;19.20;61.50;;;;;;5038958;28;20444;-82
2021/12/17 12:08:29;;;;;;;1.70;1.60;;;19.20;61.40;;;;;;5037471;28;20467;-83
2021/12/17 12:11:06;;;;;;;2.00;1.90;;;19.20;61.50;;;;;;5051121;28;20496;-83
2021/12/17 12:13:35;;;;;;;1.43;1.43;;;19.20;61.60;;;;;;5059695;28;20559;-83
2021/12/17 12:16:04;;;;;;;1.70;1.60;;;19.20;61.60;;;;;;5049992;28;20539;-83
2021/12/17 12:18:49;;;;;;;1.57;1.47;;;19.20;61.50;;;;;;5053447;28;20537;-82
2021/12/17 12:21:18;;;;;;;1.37;1.37;;;19.20;61.50;;;;;;5059208;28;20422;-82
2021/12/17 12:23:56;;;;;;;1.80;1.70;;;19.20;61.50;;;;;;5059362;28;20556;-81
2021/12/17 12:26:29;;;;;;;1.77;1.67;;;19.20;61.30;;;;;;5053982;28;20461;-82
2021/12/17 12:29:02;;;;;;;1.60;1.43;;;19.20;61.50;;;;;;5059765;28;20426;-83
2021/12/17 12:31:53;;;;;;;1.60;1.50;;;19.20;61.50;;;;;;5059158;28;20557;-83
2021/12/17 12:34:22;;;;;;;1.53;1.43;;;19.20;61.40;;;;;;5059353;28;20537;-83
2021/12/17 12:37:05;;;;;;;2.13;1.60;;;19.20;61.40;;;;;;5059172;28;20419;-83
2021/12/17 12:39:35;;;;;;;1.90;1.80;;;19.20;61.40;;;;;;5059547;28;20518;-84
2021/12/17 12:42:07;;;;;;;1.70;1.60;;;19.20;61.50;;;;;;5052667;28;20458;-84
2021/12/17 12:45:10;;;;;;;1.30;1.30;;;19.20;61.60;;;;;;5059160;28;20486;-82
2021/12/17 12:47:44;;;;;;;1.50;1.40;;;19.20;61.40;;;;;;5058866;28;20482;-82
2021/12/17 12:50:12;;;;;;;1.60;1.50;;;19.20;61.50;;;;;;5058023;28;20454;-83
2021/12/17 12:52:43;;;;;;;1.47;1.30;;;19.20;61.70;;;;;;5057950;28;20470;-81
2021/12/17 12:55:15;;;;;;;1.60;1.50;;;19.20;61.50;;;;;;5056277;28;20518;-82
2021/12/17 12:57:46;;;;;;;1.53;1.43;;;19.20;61.60;;;;;;5050907;28;20462;-83
2021/12/17 13:00:16;;;;;;;1.70;1.60;;;19.30;61.60;;;;;;5049006;28;21021;-82
2021/12/17 13:02:44;;;;;;;2.03;1.93;;;19.30;61.50;;;;;;5057939;28;20513;-83
2021/12/17 13:05:14;;;;;;;1.60;1.50;;;19.30;61.40;;;;;;5058365;28;20445;-82
2021/12/17 13:07:42;;;;;;;1.37;1.37;;;19.30;61.40;;;;;;5057697;28;20450;-82
2021/12/17 13:10:12;;;;;;;1.37;1.27;;;19.30;61.40;;;;;;5058361;28;20442;-82
2021/12/17 13:12:40;;;;;;;1.40;1.30;;;19.30;61.50;;;;;;5057985;28;20525;-82
2021/12/17 13:15:31;;;;;;;1.60;1.57;;;19.20;61.40;;;;;;5055592;28;20538;-82
2021/12/17 13:21:04;;;;;;;2.20;1.60;;;19.20;61.40;;;;;;5057999;28;20431;-82
2021/12/17 13:23:37;;;;;;;1.30;1.30;;;19.20;61.50;;;;;;5058217;28;20474;-82
2021/12/17 13:26:08;;;;;;;1.10;1.10;;;19.20;61.50;;;;;;5058411;28;20466;-81
2021/12/17 13:28:46;;;;;;;1.30;1.30;;;19.20;61.50;;;;;;5039205;28;20467;-82
2021/12/17 13:31:35;;;;;;;1.50;1.40;;;19.20;61.60;;;;;;5051004;28;20542;-82
2021/12/17 13:34:22;;;;;;;1.40;1.30;;;19.20;61.60;;;;;;5054899;28;20513;-82
2021/12/17 13:37:02;;;;;;;1.20;1.10;;;19.10;61.60;;;;;;5057063;28;20500;-80
2021/12/17 13:39:31;;;;;;;1.80;1.70;;;19.10;62.30;;;;;;5047635;28;20459;-83
2021/12/17 13:41:59;;;;;;;1.40;1.40;;;19.10;61.70;;;;;;5045808;28;20466;-83
2021/12/17 13:44:38;;;;;;;1.50;1.50;;;19.10;61.50;;;;;;5046952;28;20459;-83
2021/12/17 13:47:22;;;;;;;1.30;1.30;;;19.10;61.60;;;;;;5047089;28;20523;-82
2021/12/17 13:49:51;;;;;;;1.20;1.10;;;19.20;61.70;;;;;;5037190;28;20454;-82
2021/12/17 13:52:22;;;;;;;1.30;1.23;;;19.20;61.70;;;;;;5037642;28;20558;-82
2021/12/17 13:54:50;;;;;;;1.20;1.20;;;19.10;61.60;;;;;;5051727;28;20558;-82
2021/12/17 13:57:18;;;;;;;1.20;1.10;;;19.20;61.70;;;;;;5048245;28;20475;-83
2021/12/17 13:59:47;;;;;;;1.33;1.33;;;19.20;61.70;;;;;;5047342;28;20485;-82
2021/12/17 14:02:17;;;;;;;1.30;1.30;;;19.10;61.70;;;;;;5048658;28;20977;-82
2021/12/17 14:04:59;;;;;;;1.33;1.27;;;19.10;61.80;;;;;;5048398;28;20463;-83
2021/12/17 14:07:27;;;;;;;1.67;1.57;;;19.10;61.70;;;;;;5045186;28;20549;-82
2021/12/17 14:10:00;;;;;;;1.10;1.10;;;19.10;61.70;;;;;;5045472;28;20486;-83
2021/12/17 14:12:30;;;;;;;1.53;1.27;;;19.20;61.70;;;;;;5048138;28;20538;-83
2021/12/17 14:15:20;;;;;;;1.50;1.40;;;19.20;61.70;;;;;;5048803;28;20421;-80
2021/12/17 14:17:50;;;;;;;1.30;1.20;;;19.20;61.80;;;;;;5047629;28;20519;-83
2021/12/17 14:20:20;;;;;;;1.40;1.30;;;19.20;61.70;;;;;;5046210;28;20475;-82
2021/12/17 14:22:48;;;;;;;1.03;1.03;;;19.20;61.60;;;;;;5047582;28;20491;-82
2021/12/17 14:25:34;;;;;;;1.50;1.40;;;19.20;61.60;;;;;;5048161;28;20806;-83
2021/12/17 14:28:08;;;;;;;1.37;1.30;;;19.10;61.50;;;;;;5047166;28;20518;-83
2021/12/17 14:30:36;;;;;;;1.10;1.10;;;19.10;61.60;;;;;;5051781;28;20963;-83
2021/12/17 14:33:10;;;;;;;1.37;1.27;;;19.10;61.60;;;;;;5048476;28;20482;-82
2021/12/17 14:35:52;;;;;;;1.23;1.23;;;19.10;61.60;;;;;;5052286;28;20419;-82
2021/12/17 14:38:21;;;;;;;1.20;1.10;;;19.10;61.70;;;;;;5051813;28;20433;-83
2021/12/17 14:40:55;;;;;;;1.30;1.20;;;19.10;61.70;;;;;;5049012;28;20427;-82
2021/12/17 14:43:26;;;;;;;1.40;1.30;;;19.10;61.70;;;;;;5048838;28;20490;-82
2021/12/17 14:45:58;;;;;;;1.30;1.20;;;19.10;61.70;;;;;;5051734;28;20467;-82
2021/12/17 14:48:36;;;;;;;1.37;1.37;;;19.10;61.70;;;;;;5050906;28;20541;-82
2021/12/17 15:02:27;;;;;;;1.20;1.10;;;19.00;61.70;;;;;;5051182;28;20454;-82
2021/12/17 15:04:56;;;;;;;1.87;1.00;;;19.00;62.00;;;;;;5051104;28;20461;-82
2021/12/17 15:07:25;;;;;;;1.27;1.27;;;19.00;61.90;;;;;;5049275;28;20432;-82
2021/12/17 15:09:53;;;;;;;1.10;1.10;;;19.00;61.90;;;;;;5049857;28;20426;-82
2021/12/17 15:12:38;;;;;;;1.33;1.33;;;19.00;61.80;;;;;;5050121;28;20473;-82
2021/12/17 15:15:09;;;;;;;1.53;1.30;;;19.00;61.70;;;;;;5049289;28;20488;-82
2021/12/17 15:17:37;;;;;;;1.30;1.27;;;19.00;61.90;;;;;;5051646;28;20538;-82
2021/12/17 15:20:20;;;;;;;1.07;1.03;;;19.00;61.90;;;;;;5042875;28;20532;-82
2021/12/17 15:22:48;;;;;;;1.20;1.20;;;19.00;61.90;;;;;;5053091;28;20971;-83
2021/12/17 15:25:16;;;;;;;1.10;1.10;;;19.00;62.30;;;;;;5050907;28;20458;-82
2021/12/17 15:27:43;;;;;;;1.20;1.20;;;19.00;62.00;;;;;;5039970;28;20427;-82
2021/12/17 15:30:13;;;;;;;1.13;1.13;;;19.00;61.90;;;;;;5038819;28;20471;-82
2021/12/17 15:32:41;;;;;;;1.30;1.30;;;19.00;61.80;;;;;;5051434;28;20488;-83
2021/12/17 15:35:11;;;;;;;1.50;1.40;;;18.90;61.70;;;;;;5052815;28;20465;-83
2021/12/17 15:37:41;;;;;;;1.43;1.33;;;19.00;61.90;;;;;;5056708;28;20544;-83
2021/12/17 15:40:10;;;;;;;1.63;1.53;;;18.90;61.70;;;;;;5061219;28;20862;-82